createdAt,value
2023-04-03T00:00:09.782Z,9.89074707
2023-04-03T00:01:10.419Z,9.88067627
2023-04-03T00:02:10.865Z,9.89074707
2023-04-03T00:03:11.350Z,9.89074707
2023-04-03T00:04:11.879Z,9.860534668
2023-04-03T00:05:12.462Z,9.860534668
2023-04-03T00:06:13.161Z,9.830322266
2023-04-03T00:07:13.556Z,9.800109863
2023-04-03T00:08:14.061Z,9.800109863
2023-04-03T00:09:14.501Z,9.810180664
2023-04-03T00:10:15.042Z,9.800109863
2023-04-03T00:11:15.643Z,9.800109863
2023-04-03T00:12:16.233Z,9.779968262
2023-04-03T00:13:16.767Z,9.739685059
2023-04-03T00:14:17.257Z,9.729614258
2023-04-03T00:15:17.753Z,9.709472656
2023-04-03T00:16:18.300Z,9.699401855
2023-04-03T00:17:18.872Z,9.679260254
2023-04-03T00:18:19.387Z,9.679260254
2023-04-03T00:19:19.939Z,9.669189453
2023-04-03T00:20:20.413Z,9.62890625
2023-04-03T00:21:20.957Z,9.598693848
2023-04-03T00:22:21.483Z,9.598693848
2023-04-03T00:23:22.035Z,9.618835449
2023-04-03T00:24:22.479Z,9.618835449
2023-04-03T00:25:23.005Z,9.62890625
2023-04-03T00:26:23.542Z,9.649047852
2023-04-03T00:27:24.149Z,9.649047852
2023-04-03T00:28:24.656Z,9.649047852
2023-04-03T00:29:25.152Z,9.699401855
2023-04-03T00:30:26.111Z,9.729614258
2023-04-03T00:31:56.812Z,9.739685059
2023-04-03T00:32:57.377Z,9.779968262
2023-04-03T00:33:57.850Z,9.830322266
2023-04-03T00:34:58.322Z,9.810180664
2023-04-03T00:35:58.835Z,9.779968262
2023-04-03T00:36:59.430Z,9.800109863
2023-04-03T00:37:59.671Z,9.800109863
2023-04-03T00:39:00.186Z,9.800109863
2023-04-03T00:40:00.694Z,9.779968262
2023-04-03T00:41:01.169Z,9.810180664
2023-04-03T00:42:01.798Z,9.850463867
2023-04-03T00:43:02.164Z,9.810180664
2023-04-03T00:44:02.783Z,9.810180664
2023-04-03T00:45:03.366Z,9.800109863
2023-04-03T00:46:03.850Z,9.800109863
2023-04-03T00:47:04.375Z,9.830322266
2023-04-03T00:48:04.881Z,9.89074707
2023-04-03T00:49:05.282Z,9.89074707
2023-04-03T00:50:05.821Z,9.88067627
2023-04-03T00:51:06.318Z,9.88067627
2023-04-03T00:52:06.981Z,9.860534668
2023-04-03T00:53:07.466Z,9.810180664
2023-04-03T00:54:07.998Z,9.810180664
2023-04-03T00:55:08.485Z,9.779968262
2023-04-03T00:56:09.092Z,9.769897461
2023-04-03T00:57:09.722Z,9.749755859
2023-04-03T00:58:10.104Z,9.749755859
2023-04-03T00:59:10.616Z,9.749755859
2023-04-03T01:00:11.221Z,9.779968262
2023-04-03T01:01:11.832Z,9.810180664
2023-04-03T01:02:12.314Z,9.810180664
2023-04-03T01:03:12.822Z,9.830322266
2023-04-03T01:04:13.554Z,9.850463867
2023-04-03T01:05:14.055Z,9.800109863
2023-04-03T01:06:14.599Z,9.800109863
2023-04-03T01:07:15.225Z,9.810180664
2023-04-03T01:08:15.666Z,9.800109863
2023-04-03T01:09:16.158Z,9.830322266
2023-04-03T01:10:16.686Z,9.800109863
2023-04-03T01:11:17.123Z,9.739685059
2023-04-03T01:12:17.609Z,9.679260254
2023-04-03T01:13:18.130Z,9.62890625
2023-04-03T01:14:18.644Z,9.618835449
2023-04-03T01:15:19.174Z,9.618835449
2023-04-03T01:16:19.691Z,9.598693848
2023-04-03T01:17:20.231Z,9.558410645
2023-04-03T01:18:20.662Z,9.528198242
2023-04-03T01:19:21.166Z,9.49798584
2023-04-03T01:20:21.698Z,9.487915039
2023-04-03T01:21:22.219Z,9.477844238
2023-04-03T01:22:22.771Z,9.437561035
2023-04-03T01:23:23.112Z,9.437561035
2023-04-03T01:24:23.552Z,9.447631836
2023-04-03T01:25:24.044Z,9.447631836
2023-04-03T01:26:24.532Z,9.487915039
2023-04-03T01:27:25.463Z,9.49798584
2023-04-03T01:28:56.194Z,9.528198242
2023-04-03T01:29:56.742Z,9.548339844
2023-04-03T01:30:57.306Z,9.548339844
2023-04-03T01:31:57.931Z,9.528198242
2023-04-03T01:32:58.705Z,9.49798584
2023-04-03T01:33:59.029Z,9.518127441
2023-04-03T01:34:59.520Z,9.487915039
2023-04-03T01:36:00.114Z,9.447631836
2023-04-03T01:37:00.542Z,9.437561035
2023-04-03T01:38:01.071Z,9.407348633
2023-04-03T01:39:01.525Z,9.36706543
2023-04-03T01:40:01.982Z,9.316711426
2023-04-03T01:41:02.891Z,9.316711426
2023-04-03T01:42:04.033Z,9.316711426
2023-04-03T01:43:04.689Z,9.316711426
2023-04-03T01:44:05.084Z,9.316711426
2023-04-03T01:45:05.519Z,9.306640625
2023-04-03T01:46:06.087Z,9.316711426
2023-04-03T01:47:06.502Z,9.336853027
2023-04-03T01:48:07.101Z,9.306640625
2023-04-03T01:49:07.603Z,9.306640625
2023-04-03T01:50:08.086Z,9.306640625
2023-04-03T01:51:08.556Z,9.336853027
2023-04-03T01:52:09.048Z,9.346923828
2023-04-03T01:53:09.607Z,9.336853027
2023-04-03T01:54:10.075Z,9.346923828
2023-04-03T01:55:10.548Z,9.397277832
2023-04-03T01:56:11.017Z,9.37713623
2023-04-03T01:57:11.496Z,9.397277832
2023-04-03T01:58:12.007Z,9.36706543
2023-04-03T01:59:12.644Z,9.316711426
2023-04-03T02:00:13.142Z,9.266357422
2023-04-03T02:01:13.774Z,9.256286621
2023-04-03T02:02:14.226Z,9.226074219
2023-04-03T02:03:14.731Z,9.23614502
2023-04-03T02:04:15.275Z,9.226074219
2023-04-03T02:05:15.850Z,9.23614502
2023-04-03T02:06:16.357Z,9.226074219
2023-04-03T02:07:16.907Z,9.165649414
2023-04-03T02:08:17.406Z,9.145507813
2023-04-03T02:09:17.827Z,9.125366211
2023-04-03T02:10:18.304Z,9.11529541
2023-04-03T02:11:18.849Z,9.11529541
2023-04-03T02:12:19.368Z,9.11529541
2023-04-03T02:13:19.893Z,9.145507813
2023-04-03T02:14:20.331Z,9.11529541
2023-04-03T02:15:20.787Z,9.11529541
2023-04-03T02:16:21.371Z,9.125366211
2023-04-03T02:17:22.057Z,9.145507813
2023-04-03T02:18:22.500Z,9.155578613
2023-04-03T02:19:23.945Z,9.155578613
2023-04-03T02:20:24.840Z,9.125366211
2023-04-03T02:21:55.742Z,9.11529541
2023-04-03T02:22:56.283Z,9.125366211
2023-04-03T02:23:56.863Z,9.075012207
2023-04-03T02:24:57.354Z,9.095153809
2023-04-03T02:25:57.907Z,9.125366211
2023-04-03T02:26:58.419Z,9.125366211
2023-04-03T02:27:58.994Z,9.125366211
2023-04-03T02:28:59.537Z,9.11529541
2023-04-03T02:30:00.046Z,9.11529541
2023-04-03T02:31:00.641Z,9.095153809
2023-04-03T02:32:01.098Z,9.064941406
2023-04-03T02:33:01.701Z,9.064941406
2023-04-03T02:34:02.215Z,9.034729004
2023-04-03T02:35:02.713Z,9.034729004
2023-04-03T02:36:03.256Z,9.004516602
2023-04-03T02:37:03.733Z,8.984375
2023-04-03T02:38:04.161Z,9.014587402
2023-04-03T02:39:04.717Z,9.034729004
2023-04-03T02:40:05.122Z,9.034729004
2023-04-03T02:41:05.644Z,9.004516602
2023-04-03T02:42:06.132Z,8.944091797
2023-04-03T02:43:06.600Z,8.944091797
2023-04-03T02:44:07.209Z,8.934020996
2023-04-03T02:45:07.634Z,8.913879395
2023-04-03T02:46:08.324Z,8.913879395
2023-04-03T02:47:08.670Z,8.863525391
2023-04-03T02:48:09.222Z,8.863525391
2023-04-03T02:49:09.702Z,8.823242188
2023-04-03T02:50:10.175Z,8.823242188
2023-04-03T02:51:10.703Z,8.823242188
2023-04-03T02:52:11.199Z,8.782958984
2023-04-03T02:53:11.799Z,8.752746582
2023-04-03T02:54:12.295Z,8.752746582
2023-04-03T02:55:12.721Z,8.752746582
2023-04-03T02:56:13.272Z,8.702392578
2023-04-03T02:57:13.936Z,8.682250977
2023-04-03T02:58:14.566Z,8.682250977
2023-04-03T02:59:15.191Z,8.682250977
2023-04-03T03:00:15.586Z,8.672180176
2023-04-03T03:01:16.149Z,8.652038574
2023-04-03T03:02:16.517Z,8.641967773
2023-04-03T03:03:17.205Z,8.60168457
2023-04-03T03:04:17.746Z,8.581542969
2023-04-03T03:05:18.287Z,8.581542969
2023-04-03T03:06:18.778Z,8.631896973
2023-04-03T03:07:19.239Z,8.60168457
2023-04-03T03:08:19.686Z,8.60168457
2023-04-03T03:09:21.025Z,8.60168457
2023-04-03T03:10:21.586Z,8.571472168
2023-04-03T03:11:22.157Z,8.521118164
2023-04-03T03:12:22.760Z,8.490905762
2023-04-03T03:13:23.103Z,8.47076416
2023-04-03T03:14:23.563Z,8.541259766
2023-04-03T03:15:54.852Z,8.551330566
2023-04-03T03:16:55.176Z,8.500976563
2023-04-03T03:17:55.693Z,8.430480957
2023-04-03T03:18:57.758Z,8.400268555
2023-04-03T03:19:57.476Z,8.359985352
2023-04-03T03:20:58.136Z,8.279418945
2023-04-03T03:21:58.516Z,8.269348145
2023-04-03T03:22:59.031Z,8.239135742
2023-04-03T03:23:59.571Z,8.20892334
2023-04-03T03:25:00.108Z,8.198852539
2023-04-03T03:26:00.781Z,8.128356934
2023-04-03T03:27:01.302Z,8.098144531
2023-04-03T03:28:01.868Z,8.08807373
2023-04-03T03:29:02.665Z,8.057861328
2023-04-03T03:30:03.137Z,8.037719727
2023-04-03T03:31:03.736Z,8.057861328
2023-04-03T03:32:04.350Z,8.027648926
2023-04-03T03:33:04.861Z,8.017578125
2023-04-03T03:34:05.391Z,8.027648926
2023-04-03T03:35:05.907Z,8.037719727
2023-04-03T03:36:06.473Z,8.057861328
2023-04-03T03:37:06.876Z,8.037719727
2023-04-03T03:38:07.404Z,7.95715332
2023-04-03T03:39:07.922Z,7.916870117
2023-04-03T03:40:08.499Z,7.876586914
2023-04-03T03:41:09.076Z,7.816162109
2023-04-03T03:42:10.471Z,7.755737305
2023-04-03T03:43:11.077Z,7.785949707
2023-04-03T03:44:11.628Z,7.806091309
2023-04-03T03:45:12.153Z,7.806091309
2023-04-03T03:46:12.706Z,7.765808105
2023-04-03T03:47:13.084Z,7.785949707
2023-04-03T03:48:13.559Z,7.806091309
2023-04-03T03:49:14.106Z,7.836303711
2023-04-03T03:50:14.633Z,7.856445313
2023-04-03T03:51:15.117Z,7.876586914
2023-04-03T03:52:15.614Z,7.836303711
2023-04-03T03:53:16.090Z,7.846374512
2023-04-03T03:54:16.565Z,7.846374512
2023-04-03T03:55:17.063Z,7.806091309
2023-04-03T03:56:17.586Z,7.816162109
2023-04-03T03:57:18.153Z,7.806091309
2023-04-03T03:58:18.628Z,7.816162109
2023-04-03T03:59:19.149Z,7.846374512
2023-04-03T04:00:19.641Z,7.836303711
2023-04-03T04:01:20.161Z,7.816162109
2023-04-03T04:02:20.737Z,7.846374512
2023-04-03T04:03:21.283Z,7.876586914
2023-04-03T04:04:21.781Z,7.856445313
2023-04-03T04:05:22.135Z,7.856445313
2023-04-03T04:06:22.680Z,7.836303711
2023-04-03T04:07:23.734Z,7.836303711
2023-04-03T04:08:54.512Z,7.816162109
2023-04-03T04:09:55.997Z,7.755737305
2023-04-03T04:10:56.500Z,7.725524902
2023-04-03T04:11:57.012Z,7.725524902
2023-04-03T04:12:58.604Z,7.725524902
2023-04-03T04:13:57.997Z,7.725524902
2023-04-03T04:14:58.490Z,7.6953125
2023-04-03T04:15:59.049Z,7.685241699
2023-04-03T04:16:59.581Z,7.624816895
2023-04-03T04:18:00.082Z,7.655029297
2023-04-03T04:19:00.607Z,7.624816895
2023-04-03T04:20:02.038Z,7.584533691
2023-04-03T04:21:02.772Z,7.624816895
2023-04-03T04:22:03.289Z,7.655029297
2023-04-03T04:23:03.716Z,7.665100098
2023-04-03T04:24:04.304Z,7.634887695
2023-04-03T04:25:04.791Z,7.634887695
2023-04-03T04:26:05.317Z,7.655029297
2023-04-03T04:27:05.760Z,7.665100098
2023-04-03T04:28:06.256Z,7.665100098
2023-04-03T04:29:06.752Z,7.6953125
2023-04-03T04:30:07.285Z,7.6953125
2023-04-03T04:31:07.848Z,7.685241699
2023-04-03T04:32:08.414Z,7.685241699
2023-04-03T04:33:08.881Z,7.6953125
2023-04-03T04:34:09.335Z,7.634887695
2023-04-03T04:35:09.949Z,7.604675293
2023-04-03T04:36:10.608Z,7.574462891
2023-04-03T04:37:11.027Z,7.544250488
2023-04-03T04:38:11.504Z,7.544250488
2023-04-03T04:39:12.062Z,7.524108887
2023-04-03T04:40:12.570Z,7.544250488
2023-04-03T04:41:13.079Z,7.604675293
2023-04-03T04:42:15.109Z,7.604675293
2023-04-03T04:43:14.099Z,7.624816895
2023-04-03T04:44:14.631Z,7.604675293
2023-04-03T04:45:15.058Z,7.604675293
2023-04-03T04:46:15.616Z,7.624816895
2023-04-03T04:47:16.336Z,7.624816895
2023-04-03T04:48:16.753Z,7.624816895
2023-04-03T04:49:17.288Z,7.624816895
2023-04-03T04:50:17.787Z,7.584533691
2023-04-03T04:51:18.259Z,7.554321289
2023-04-03T04:52:18.709Z,7.544250488
2023-04-03T04:53:19.118Z,7.514038086
2023-04-03T04:54:19.613Z,7.514038086
2023-04-03T04:55:20.099Z,7.524108887
2023-04-03T04:56:20.545Z,7.554321289
2023-04-03T04:57:21.072Z,7.503967285
2023-04-03T04:58:21.428Z,7.503967285
2023-04-03T04:59:22.126Z,7.554321289
2023-04-03T05:00:22.378Z,7.554321289
2023-04-03T05:01:53.475Z,7.514038086
2023-04-03T05:02:54.024Z,7.503967285
2023-04-03T05:03:54.285Z,7.503967285
2023-04-03T05:04:54.855Z,7.473754883
2023-04-03T05:05:55.332Z,7.453613281
2023-04-03T05:06:55.828Z,7.393188477
2023-04-03T05:07:56.371Z,7.373046875
2023-04-03T05:08:56.947Z,7.362976074
2023-04-03T05:09:57.517Z,7.332763672
2023-04-03T05:10:58.036Z,7.292480469
2023-04-03T05:11:58.580Z,7.262268066
2023-04-03T05:12:59.111Z,7.292480469
2023-04-03T05:13:59.596Z,7.30255127
2023-04-03T05:15:00.175Z,7.332763672
2023-04-03T05:16:00.701Z,7.342834473
2023-04-03T05:17:01.185Z,7.342834473
2023-04-03T05:18:01.939Z,7.342834473
2023-04-03T05:19:02.773Z,7.332763672
2023-04-03T05:20:03.214Z,7.322692871
2023-04-03T05:21:03.678Z,7.292480469
2023-04-03T05:22:04.142Z,7.332763672
2023-04-03T05:23:04.799Z,7.342834473
2023-04-03T05:24:05.226Z,7.342834473
2023-04-03T05:25:05.670Z,7.373046875
2023-04-03T05:26:06.211Z,7.362976074
2023-04-03T05:27:06.697Z,7.342834473
2023-04-03T05:28:07.263Z,7.332763672
2023-04-03T05:29:07.681Z,7.332763672
2023-04-03T05:30:08.119Z,7.332763672
2023-04-03T05:31:08.624Z,7.332763672
2023-04-03T05:32:09.079Z,7.30255127
2023-04-03T05:33:09.659Z,7.262268066
2023-04-03T05:34:10.114Z,7.232055664
2023-04-03T05:35:10.622Z,7.18170166
2023-04-03T05:36:11.165Z,7.121276855
2023-04-03T05:37:11.569Z,7.141418457
2023-04-03T05:38:12.069Z,7.121276855
2023-04-03T05:39:12.560Z,7.091064453
2023-04-03T05:40:13.990Z,7.080993652
2023-04-03T05:41:14.489Z,7.080993652
2023-04-03T05:42:15.013Z,7.121276855
2023-04-03T05:43:15.594Z,7.151489258
2023-04-03T05:44:16.046Z,7.111206055
2023-04-03T05:45:16.629Z,7.091064453
2023-04-03T05:46:17.166Z,7.080993652
2023-04-03T05:47:17.575Z,7.141418457
2023-04-03T05:48:18.076Z,7.161560059
2023-04-03T05:49:18.528Z,7.191772461
2023-04-03T05:50:19.094Z,7.161560059
2023-04-03T05:51:19.656Z,7.121276855
2023-04-03T05:52:20.160Z,7.05078125
2023-04-03T05:53:20.690Z,7.000427246
2023-04-03T05:54:21.101Z,7.000427246
2023-04-03T05:55:21.569Z,6.940002441
2023-04-03T05:56:52.747Z,6.909790039
2023-04-03T05:57:53.272Z,6.929931641
2023-04-03T05:58:54.017Z,6.970214844
2023-04-03T05:59:54.415Z,7.05078125
2023-04-03T06:00:54.913Z,7.091064453
2023-04-03T06:01:55.549Z,7.141418457
2023-04-03T06:02:56.294Z,7.141418457
2023-04-03T06:03:56.963Z,7.141418457
2023-04-03T06:04:57.476Z,7.111206055
2023-04-03T06:05:57.778Z,7.121276855
2023-04-03T06:06:58.277Z,7.141418457
2023-04-03T06:07:58.818Z,7.151489258
2023-04-03T06:08:59.390Z,7.191772461
2023-04-03T06:09:59.927Z,7.242126465
2023-04-03T06:11:00.515Z,7.30255127
2023-04-03T06:12:01.048Z,7.292480469
2023-04-03T06:13:01.649Z,7.342834473
2023-04-03T06:14:02.942Z,7.373046875
2023-04-03T06:15:03.478Z,7.342834473
2023-04-03T06:16:03.944Z,7.322692871
2023-04-03T06:17:04.483Z,7.30255127
2023-04-03T06:18:04.944Z,7.262268066
2023-04-03T06:19:05.755Z,7.232055664
2023-04-03T06:20:06.073Z,7.18170166
2023-04-03T06:21:06.551Z,7.191772461
2023-04-03T06:22:07.049Z,7.211914063
2023-04-03T06:23:08.601Z,7.191772461
2023-04-03T06:24:08.061Z,7.18170166
2023-04-03T06:25:08.563Z,7.121276855
2023-04-03T06:26:08.958Z,7.070922852
2023-04-03T06:27:09.426Z,7.05078125
2023-04-03T06:28:10.035Z,7.080993652
2023-04-03T06:29:10.569Z,7.05078125
2023-04-03T06:30:11.034Z,7.040710449
2023-04-03T06:31:11.708Z,6.970214844
2023-04-03T06:32:12.046Z,6.940002441
2023-04-03T06:33:12.490Z,6.909790039
2023-04-03T06:34:13.705Z,6.909790039
2023-04-03T06:35:14.400Z,6.909790039
2023-04-03T06:36:14.986Z,6.990356445
2023-04-03T06:37:15.533Z,7.000427246
2023-04-03T06:38:16.063Z,7.010498047
2023-04-03T06:39:16.589Z,6.970214844
2023-04-03T06:40:17.076Z,6.940002441
2023-04-03T06:41:17.594Z,6.970214844
2023-04-03T06:42:18.039Z,6.970214844
2023-04-03T06:43:18.537Z,6.960144043
2023-04-03T06:44:19.151Z,6.940002441
2023-04-03T06:45:19.588Z,6.970214844
2023-04-03T06:46:20.240Z,6.960144043
2023-04-03T06:47:20.642Z,6.970214844
2023-04-03T06:48:21.548Z,6.990356445
2023-04-03T06:49:52.249Z,6.990356445
2023-04-03T06:50:52.652Z,6.990356445
2023-04-03T06:51:53.136Z,7.05078125
2023-04-03T06:52:53.584Z,7.010498047
2023-04-03T06:53:54.094Z,7.040710449
2023-04-03T06:54:54.669Z,7.080993652
2023-04-03T06:55:55.014Z,7.040710449
2023-04-03T06:56:55.566Z,6.990356445
2023-04-03T06:57:56.017Z,7.010498047
2023-04-03T06:58:56.520Z,6.970214844
2023-04-03T06:59:57.018Z,6.940002441
2023-04-03T07:00:57.398Z,6.960144043
2023-04-03T07:01:57.872Z,7.000427246
2023-04-03T07:02:58.461Z,7.070922852
2023-04-03T07:03:59.093Z,7.091064453
2023-04-03T07:04:59.473Z,7.121276855
2023-04-03T07:05:59.772Z,7.18170166
2023-04-03T07:07:00.258Z,7.262268066
2023-04-03T07:08:00.807Z,7.30255127
2023-04-03T07:09:01.423Z,7.332763672
2023-04-03T07:10:01.895Z,7.362976074
2023-04-03T07:11:02.678Z,7.362976074
2023-04-03T07:12:03.171Z,7.393188477
2023-04-03T07:13:03.622Z,7.44354248
2023-04-03T07:14:04.176Z,7.453613281
2023-04-03T07:15:04.710Z,7.503967285
2023-04-03T07:16:05.193Z,7.483825684
2023-04-03T07:17:05.614Z,7.393188477
2023-04-03T07:18:06.122Z,7.342834473
2023-04-03T07:19:06.520Z,7.292480469
2023-04-03T07:20:07.156Z,7.232055664
2023-04-03T07:21:07.562Z,7.191772461
2023-04-03T07:22:08.027Z,7.191772461
2023-04-03T07:23:08.496Z,7.18170166
2023-04-03T07:24:11.425Z,7.18170166
2023-04-03T07:25:09.544Z,7.161560059
2023-04-03T07:26:10.000Z,7.18170166
2023-04-03T07:27:10.457Z,7.191772461
2023-04-03T07:28:10.913Z,7.161560059
2023-04-03T07:29:11.420Z,7.211914063
2023-04-03T07:30:11.982Z,7.262268066
2023-04-03T07:31:12.512Z,7.232055664
2023-04-03T07:32:12.927Z,7.191772461
2023-04-03T07:33:13.388Z,7.211914063
2023-04-03T07:34:13.985Z,7.121276855
2023-04-03T07:35:14.480Z,7.121276855
2023-04-03T07:36:15.132Z,7.111206055
2023-04-03T07:37:15.644Z,7.141418457
2023-04-03T07:38:16.312Z,7.151489258
2023-04-03T07:39:16.841Z,7.18170166
2023-04-03T07:40:18.989Z,7.191772461
2023-04-03T07:41:17.927Z,7.242126465
2023-04-03T07:42:18.506Z,7.242126465
2023-04-03T07:43:19.022Z,7.191772461
2023-04-03T07:44:19.526Z,7.151489258
2023-04-03T07:45:20.028Z,7.18170166
2023-04-03T07:46:21.005Z,7.161560059
2023-04-03T07:47:51.710Z,7.091064453
2023-04-03T07:48:52.181Z,7.070922852
2023-04-03T07:49:52.645Z,7.05078125
2023-04-03T07:50:53.327Z,7.070922852
2023-04-03T07:51:53.604Z,7.05078125
2023-04-03T07:52:54.180Z,7.070922852
2023-04-03T07:53:54.675Z,7.070922852
2023-04-03T07:54:55.135Z,7.070922852
2023-04-03T07:55:55.770Z,7.05078125
2023-04-03T07:56:56.140Z,7.05078125
2023-04-03T07:57:56.623Z,7.05078125
2023-04-03T07:58:57.125Z,7.070922852
2023-04-03T07:59:57.619Z,7.111206055
2023-04-03T08:00:58.210Z,7.121276855
2023-04-03T08:01:58.559Z,7.111206055
2023-04-03T08:02:59.157Z,7.111206055
2023-04-03T08:03:59.592Z,7.151489258
2023-04-03T08:05:00.020Z,7.161560059
2023-04-03T08:06:00.640Z,7.161560059
2023-04-03T08:07:00.972Z,7.161560059
2023-04-03T08:08:01.408Z,7.242126465
2023-04-03T08:09:01.835Z,7.232055664
2023-04-03T08:10:02.575Z,7.232055664
2023-04-03T08:11:03.066Z,7.232055664
2023-04-03T08:12:03.569Z,7.242126465
2023-04-03T08:13:04.128Z,7.262268066
2023-04-03T08:14:04.667Z,7.242126465
2023-04-03T08:15:05.214Z,7.242126465
2023-04-03T08:16:05.779Z,7.242126465
2023-04-03T08:17:06.317Z,7.262268066
2023-04-03T08:18:06.813Z,7.292480469
2023-04-03T08:19:09.676Z,7.332763672
2023-04-03T08:20:07.921Z,7.322692871
2023-04-03T08:21:08.470Z,7.272338867
2023-04-03T08:22:08.855Z,7.272338867
2023-04-03T08:23:09.307Z,7.272338867
2023-04-03T08:24:09.788Z,7.211914063
2023-04-03T08:25:10.186Z,7.191772461
2023-04-03T08:26:10.854Z,7.262268066
2023-04-03T08:27:11.305Z,7.30255127
2023-04-03T08:28:11.899Z,7.342834473
2023-04-03T08:29:12.365Z,7.373046875
2023-04-03T08:30:12.802Z,7.453613281
2023-04-03T08:31:13.474Z,7.483825684
2023-04-03T08:32:13.887Z,7.503967285
2023-04-03T08:33:14.816Z,7.524108887
2023-04-03T08:34:15.305Z,7.473754883
2023-04-03T08:35:15.802Z,7.453613281
2023-04-03T08:36:16.358Z,7.483825684
2023-04-03T08:37:16.749Z,7.503967285
2023-04-03T08:38:17.158Z,7.524108887
2023-04-03T08:39:17.649Z,7.524108887
2023-04-03T08:40:18.144Z,7.514038086
2023-04-03T08:41:18.605Z,7.503967285
2023-04-03T08:42:19.090Z,7.524108887
2023-04-03T08:43:20.118Z,7.574462891
2023-04-03T08:44:50.808Z,7.574462891
2023-04-03T08:45:51.313Z,7.544250488
2023-04-03T08:46:51.663Z,7.544250488
2023-04-03T08:47:53.891Z,7.604675293
2023-04-03T08:48:52.541Z,7.655029297
2023-04-03T08:49:53.007Z,7.705383301
2023-04-03T08:50:53.716Z,7.755737305
2023-04-03T08:51:54.211Z,7.806091309
2023-04-03T08:52:54.673Z,7.816162109
2023-04-03T08:53:55.142Z,7.836303711
2023-04-03T08:54:55.606Z,7.836303711
2023-04-03T08:55:56.054Z,7.836303711
2023-04-03T08:56:56.675Z,7.876586914
2023-04-03T08:57:57.025Z,7.94708252
2023-04-03T08:58:57.501Z,7.997436523
2023-04-03T08:59:57.946Z,8.037719727
2023-04-03T09:00:58.386Z,8.037719727
2023-04-03T09:01:58.970Z,8.027648926
2023-04-03T09:02:59.313Z,8.057861328
2023-04-03T09:03:59.772Z,8.037719727
2023-04-03T09:05:00.384Z,8.037719727
2023-04-03T09:06:00.812Z,8.067932129
2023-04-03T09:07:01.343Z,8.138427734
2023-04-03T09:08:01.757Z,8.138427734
2023-04-03T09:09:02.205Z,8.168640137
2023-04-03T09:10:02.723Z,8.178710938
2023-04-03T09:11:03.249Z,8.239135742
2023-04-03T09:12:03.766Z,8.269348145
2023-04-03T09:13:04.195Z,8.218994141
2023-04-03T09:14:04.653Z,8.198852539
2023-04-03T09:15:05.174Z,8.138427734
2023-04-03T09:16:05.650Z,8.118286133
2023-04-03T09:17:06.183Z,8.067932129
2023-04-03T09:18:06.666Z,8.017578125
2023-04-03T09:19:07.082Z,8.037719727
2023-04-03T09:20:07.541Z,8.057861328
2023-04-03T09:21:07.970Z,8.057861328
2023-04-03T09:22:08.524Z,8.037719727
2023-04-03T09:23:08.873Z,8.037719727
2023-04-03T09:24:09.297Z,8.017578125
2023-04-03T09:25:09.762Z,8.017578125
2023-04-03T09:26:10.203Z,8.027648926
2023-04-03T09:27:10.720Z,7.997436523
2023-04-03T09:28:11.358Z,7.997436523
2023-04-03T09:29:11.845Z,7.997436523
2023-04-03T09:30:12.330Z,7.937011719
2023-04-03T09:31:12.856Z,7.856445313
2023-04-03T09:32:13.347Z,7.806091309
2023-04-03T09:33:13.821Z,7.755737305
2023-04-03T09:34:14.293Z,7.755737305
2023-04-03T09:35:20.610Z,7.755737305
2023-04-03T09:36:15.240Z,7.755737305
2023-04-03T09:37:15.837Z,7.725524902
2023-04-03T09:38:16.287Z,7.6953125
2023-04-03T09:39:16.762Z,7.725524902
2023-04-03T09:40:17.197Z,7.725524902
2023-04-03T09:41:17.676Z,7.785949707
2023-04-03T09:42:18.193Z,7.856445313
2023-04-03T09:43:18.666Z,7.886657715
2023-04-03T09:44:49.736Z,7.876586914
2023-04-03T09:45:50.162Z,7.906799316
2023-04-03T09:46:50.901Z,7.876586914
2023-04-03T09:47:51.365Z,7.856445313
2023-04-03T09:48:55.054Z,7.836303711
2023-04-03T09:49:52.240Z,7.806091309
2023-04-03T09:50:52.694Z,7.765808105
2023-04-03T09:51:53.123Z,7.735595703
2023-04-03T09:52:53.672Z,7.765808105
2023-04-03T09:53:53.990Z,7.806091309
2023-04-03T09:54:54.452Z,7.765808105
2023-04-03T09:55:54.945Z,7.846374512
2023-04-03T09:56:55.617Z,7.886657715
2023-04-03T09:57:56.060Z,7.937011719
2023-04-03T09:58:56.529Z,7.987365723
2023-04-03T09:59:56.933Z,8.067932129
2023-04-03T10:00:57.473Z,8.198852539
2023-04-03T10:01:57.981Z,8.33984375
2023-04-03T10:02:58.679Z,8.450622559
2023-04-03T10:03:59.215Z,8.521118164
2023-04-03T10:05:09.362Z,8.581542969
2023-04-03T10:06:00.172Z,8.672180176
2023-04-03T10:07:00.641Z,8.73260498
2023-04-03T10:08:03.951Z,8.712463379
2023-04-03T10:09:01.635Z,8.752746582
2023-04-03T10:10:02.268Z,8.803100586
2023-04-03T10:11:02.806Z,8.833312988
2023-04-03T10:12:03.297Z,8.823242188
2023-04-03T10:13:03.789Z,8.803100586
2023-04-03T10:14:04.363Z,8.762817383
2023-04-03T10:15:04.864Z,8.73260498
2023-04-03T10:16:05.316Z,8.641967773
2023-04-03T10:17:05.767Z,8.541259766
2023-04-03T10:18:17.878Z,8.490905762
2023-04-03T10:19:06.717Z,8.490905762
2023-04-03T10:20:07.523Z,8.500976563
2023-04-03T10:21:11.893Z,8.47076416
2023-04-03T10:22:08.722Z,8.460693359
2023-04-03T10:23:09.221Z,8.370056152
2023-04-03T10:24:09.686Z,8.309631348
2023-04-03T10:25:10.121Z,8.239135742
2023-04-03T10:26:12.038Z,8.198852539
2023-04-03T10:27:11.115Z,8.138427734
2023-04-03T10:28:11.569Z,8.118286133
2023-04-03T10:29:12.033Z,8.08807373
2023-04-03T10:30:12.503Z,7.997436523
2023-04-03T10:31:12.971Z,7.94708252
2023-04-03T10:32:13.387Z,7.937011719
2023-04-03T10:33:13.880Z,7.916870117
2023-04-03T10:34:14.392Z,7.836303711
2023-04-03T10:35:15.194Z,7.785949707
2023-04-03T10:36:15.945Z,7.735595703
2023-04-03T10:37:16.396Z,7.725524902
2023-04-03T10:38:16.932Z,7.725524902
2023-04-03T10:39:17.404Z,7.735595703
2023-04-03T10:40:17.876Z,7.806091309
2023-04-03T10:41:49.068Z,7.806091309
2023-04-03T10:42:49.466Z,7.856445313
2023-04-03T10:43:50.063Z,7.886657715
2023-04-03T10:44:50.531Z,7.906799316
2023-04-03T10:45:51.087Z,7.916870117
2023-04-03T10:46:51.505Z,7.886657715
2023-04-03T10:47:52.000Z,7.876586914
2023-04-03T10:48:52.721Z,7.906799316
2023-04-03T10:49:59.285Z,7.906799316
2023-04-03T10:50:53.656Z,7.94708252
2023-04-03T10:51:54.164Z,7.94708252
2023-04-03T10:52:54.616Z,7.95715332
2023-04-03T10:53:55.099Z,7.997436523
2023-04-03T10:54:55.548Z,8.057861328
2023-04-03T10:55:56.070Z,8.128356934
2023-04-03T10:57:08.569Z,8.198852539
2023-04-03T10:57:57.075Z,8.269348145
2023-04-03T10:58:57.490Z,8.319702148
2023-04-03T10:59:57.950Z,8.390197754
2023-04-03T11:00:58.445Z,8.450622559